Home > Products > Valid Products > MTR

000
SAUS44 KLIX 221152
MTRBVE
METAR KBVE 221151Z AUTO 32004KT 10SM CLR 28/26 A3011 RMK AO2 SLP194
T02780256 10278 20267 53013





000
SAUS44 KLIX 221052
MTRBVE
METAR KBVE 221051Z AUTO 33004KT 10SM SCT026 28/26 A3009 RMK AO2
SLP190 T02780261





000
SAUS44 KLIX 221045
MTRBVE
SPECI KBVE 221044Z AUTO 34003KT 10SM BKN026 28/26 A3009 RMK AO2
T02780261





000
SAUS44 KLIX 220952
MTRBVE
METAR KBVE 220951Z AUTO 33003KT 10SM CLR 28/26 A3008 RMK AO2 SLP185
T02780256





000
SAUS44 KLIX 220852
MTRBVE
METAR KBVE 220851Z AUTO 32003KT 10SM CLR 27/26 A3007 RMK AO2 SLP181
T02720256 56011





000
SAUS44 KLIX 220752
MTRBVE
METAR KBVE 220751Z AUTO 00000KT 10SM CLR 27/25 A3007 RMK AO2 SLP183
T02720250





000
SAUS44 KLIX 220652
MTRBVE
METAR KBVE 220651Z AUTO 00000KT 10SM CLR 27/25 A3008 RMK AO2 SLP186
T02720250





000
SAUS44 KLIX 220552
MTRBVE
METAR KBVE 220551Z AUTO 00000KT 10SM CLR 28/25 A3010 RMK AO2 SLP193
T02780250 10306 20272 403330272 58007





000
SAUS44 KLIX 220452
MTRBVE
METAR KBVE 220451Z AUTO 31003KT 10SM CLR 28/26 A3011 RMK AO2 SLP195
T02780261





000
SAUS44 KLIX 220352
MTRBVE
METAR KBVE 220351Z AUTO 00000KT 10SM CLR 28/26 A3013 RMK AO2 SLP201
T02780261





000
SAUS44 KLIX 220252
MTRBVE
METAR KBVE 220251Z AUTO 00000KT 10SM CLR 29/26 A3012 RMK AO2 SLP200
T02890256 51004





000
SAUS44 KLIX 220152
MTRBVE
METAR KBVE 220151Z AUTO 00000KT 10SM CLR 29/24 A3012 RMK AO2 SLP199
T02890244





000
SAUS44 KLIX 220052
MTRBVE
METAR KBVE 220051Z AUTO 00000KT 10SM SCT033 29/24 A3011 RMK AO2
SLP197 T02940244





000
SAUS44 KLIX 212352
MTRBVE
METAR KBVE 212351Z AUTO 25005KT 10SM BKN033 BKN055 31/24 A3011 RMK
AO2 SLP196 T03060239 10322 20294 53003





000
SAUS44 KLIX 212252
MTRBVE
METAR KBVE 212251Z AUTO 00000KT 10SM CLR 31/24 A3011 RMK AO2 SLP194
T03110244





000
SAUS44 KLIX 212152
MTRBVE
METAR KBVE 212151Z AUTO 18005KT 10SM CLR 32/24 A3011 RMK AO2 SLP194
T03170244





000
SAUS44 KLIX 212143
MTRBVE
SPECI KBVE 212142Z AUTO VRB04KT 10SM FEW002 32/24 A3010 RMK AO2
T03170244





000
SAUS44 KLIX 212052
MTRBVE
METAR KBVE 212051Z AUTO 14005KT 10SM FEW030 SCT034 BKN046 32/24
A3010 RMK AO2 SLP193 T03170244 56013





000
SAUS44 KLIX 211953
MTRBVE
METAR KBVE 211951Z AUTO 10006KT 10SM FEW027 32/25 A3011 RMK AO2
SLP196 T03220250





000
SAUS44 KLIX 211920
MTRBVE
SPECI KBVE 211919Z AUTO 12007KT 10SM SCT025 SCT033 BKN044 31/24
A3012 RMK AO2 T03110244





000
SAUS44 KLIX 211900
MTRBVE
SPECI KBVE 211859Z AUTO 13009KT 10SM BKN026 30/25 A3013 RMK AO2
T03000250





000
SAUS44 KLIX 211853
MTRBVE
METAR KBVE 211851Z AUTO 09004KT 10SM SCT027 31/25 A3013 RMK AO2
SLP202 T03110250





000
SAUS44 KLIX 211813
MTRBVE
SPECI KBVE 211812Z AUTO 06007KT 10SM SCT029 BKN039 31/25 A3014 RMK
AO2 T03110250





000
SAUS44 KLIX 211801
MTRBVE
SPECI KBVE 211759Z AUTO 07006KT 10SM BKN029 BKN039 32/24 A3014 RMK
AO2 T03170244





000
SAUS44 KLIX 211752
MTRBVE
METAR KBVE 211751Z AUTO 07006KT 10SM SCT029 BKN036 32/26 A3014 RMK
AO2 SLP206 T03220256 10333 20278 58004





000
SAUS44 KLIX 211652
MTRBVE
METAR KBVE 211651Z AUTO 00000KT 10SM CLR 32/23 A3015 RMK AO2 SLP210
T03220228





000
SAUS44 KLIX 211619
MTRBVE
SPECI KBVE 211617Z AUTO 00000KT 10SM SCT026 31/25 A3016 RMK AO2
T03060250





000
SAUS44 KLIX 211601
MTRBVE
SPECI KBVE 211600Z AUTO VRB03KT 10SM BKN026 BKN033 32/25 A3016 RMK
AO2 T03170250





000
SAUS44 KLIX 211552
MTRBVE
METAR KBVE 211551Z AUTO 00000KT 10SM SCT026 BKN033 31/24 A3016 RMK
AO2 SLP213 T03110244





000
SAUS44 KLIX 211542
MTRBVE
SPECI KBVE 211541Z AUTO 00000KT 10SM BKN028 OVC034 31/25 A3016 RMK
AO2 T03110250





000
SAUS44 KLIX 211452
MTRBVE
METAR KBVE 211451Z AUTO VRB04KT 9SM CLR 31/24 A3015 RMK AO2 SLP210
T03060239 51009





000
SAUS44 KLIX 211352
MTRBVE
METAR KBVE 211351Z AUTO 22004KT 10SM FEW021 30/24 A3014 RMK AO2
SLP207 T03000244





000
SAUS44 KLIX 211252
MTRBVE
METAR KBVE 211251Z AUTO 08003KT 10SM CLR 29/26 A3014 RMK AO2 SLP206
T02940256





000
SAUS44 KLIX 211223
MTRBVE
SPECI KBVE 211221Z AUTO 00000KT 10SM SCT025 29/26 A3014 RMK AO2
T02890256





000
SAUS44 KLIX 211201
MTRBVE
SPECI KBVE 211200Z AUTO 00000KT 10SM BKN024 28/24 A3013 RMK AO2
T02830244





000
SAUS44 KLIX 211152
MTRBVE
METAR KBVE 211151Z AUTO 00000KT 10SM SCT024 28/24 A3012 RMK AO2
SLP200 T02780244 10289 20278 53014





000
SAUS44 KLIX 211052
MTRBVE
METAR KBVE 211051Z AUTO 20004KT 10SM CLR 28/24 A3011 RMK AO2 SLP194
T02830244





000
SAUS44 KLIX 210952
MTRBVE
METAR KBVE 210951Z AUTO 21004KT 10SM SCT025 SCT032 28/25 A3009 RMK
AO2 SLP188 T02830250





000
SAUS44 KLIX 210921
MTRBVE
SPECI KBVE 210920Z AUTO 19004KT 10SM BKN026 BKN030 28/25 A3010 RMK
AO2 T02830250





000
SAUS44 KLIX 210852
MTRBVE
METAR KBVE 210851Z AUTO 19004KT 10SM CLR 28/24 A3008 RMK AO2 SLP187
T02830244 58002





000
SAUS44 KLIX 210752
MTRBVE
METAR KBVE 210751Z AUTO 18003KT 10SM CLR 28/24 A3009 RMK AO2 SLP189
T02780244





000
SAUS44 KLIX 210652
MTRBVE
METAR KBVE 210651Z AUTO 19004KT 10SM CLR 28/24 A3009 RMK AO2 SLP188
T02830244





000
SAUS44 KLIX 210552
MTRBVE
METAR KBVE 210551Z AUTO 19004KT 10SM CLR 29/24 A3009 RMK AO2 SLP189
T02890244 10300 20283 403280283 58002





000
SAUS44 KLIX 210452
MTRBVE
METAR KBVE 210451Z AUTO 20005KT 10SM CLR 29/24 A3011 RMK AO2 SLP194
T02890244





000
SAUS44 KLIX 210352
MTRBVE
METAR KBVE 210351Z AUTO 18005KT 10SM CLR 29/24 A3011 RMK AO2 SLP194
T02890244





000
SAUS44 KLIX 210253
MTRBVE
METAR KBVE 210251Z AUTO 20004KT 10SM CLR 29/24 A3010 RMK AO2 SLP191
T02940244 53009





000
SAUS44 KLIX 210152
MTRBVE
METAR KBVE 210151Z AUTO 21005KT 10SM CLR 29/24 A3008 RMK AO2 SLP186
T02940244





000
SAUS44 KLIX 210052
MTRBVE
METAR KBVE 210051Z AUTO 20007KT 10SM CLR 30/24 A3007 RMK AO2 SLP182
T03000239





000
SAUS44 KLIX 202352
MTRBVE
METAR KBVE 202351Z AUTO 22007KT 10SM CLR 30/24 A3007 RMK AO2 SLP182
T03000244 10328 20300 53003





000
SAUS44 KLIX 202253
MTRBVE
METAR KBVE 202251Z AUTO 19007KT 10SM CLR 31/24 A3006 RMK AO2 SLP180
T03110239





000
SAUS44 KLIX 202152
MTRBVE
METAR KBVE 202151Z AUTO 19006KT 10SM CLR 31/24 A3006 RMK AO2 SLP178
T03110239





000
SAUS44 KLIX 202052
MTRBVE
METAR KBVE 202051Z AUTO 18007KT 10SM FEW030 FEW037 SCT048 32/25
A3006 RMK AO2 SLP179 T03220250 56013





000
SAUS44 KLIX 202001
MTRBVE
SPECI KBVE 202000Z AUTO 20008KT 10SM FEW003 SCT029 BKN038 32/25
A3006 RMK AO2 T03220250





000
SAUS44 KLIX 201953
MTRBVE
METAR KBVE 201951Z AUTO 16007KT 10SM SCT029 BKN038 BKN049 32/25
A3007 RMK AO2 SLP180 T03170250





000
SAUS44 KLIX 201927
MTRBVE
SPECI KBVE 201926Z AUTO 07008KT 10SM BKN028 BKN045 31/25 A3008 RMK
AO2 T03110250





000
SAUS44 KLIX 201852
MTRBVE
METAR KBVE 201851Z AUTO 10008KT 10SM SCT041 32/24 A3008 RMK AO2
SLP187 T03170244





000
SAUS44 KLIX 201752
MTRBVE
METAR KBVE 201751Z AUTO VRB06KT 10SM CLR 32/24 A3010 RMK AO2 SLP192
T03170244 10322 20289 51002





000
SAUS44 KLIX 201652
MTRBVE
METAR KBVE 201651Z AUTO 21006KT 10SM CLR 32/24 A3010 RMK AO2 SLP192
T03170239





000
SAUS44 KLIX 201553
MTRBVE
METAR KBVE 201551Z AUTO VRB05KT 10SM CLR 32/25 A3010 RMK AO2 SLP192
T03170250





000
SAUS44 KLIX 201452
MTRBVE
METAR KBVE 201451Z AUTO 19005KT 10SM CLR 31/24 A3009 RMK AO2 SLP190
T03110244 51019





000
SAUS44 KLIX 201352
MTRBVE
METAR KBVE 201351Z AUTO 20006KT 10SM CLR 31/24 A3008 RMK AO2 SLP184
T03060239





000
SAUS44 KLIX 201253
MTRBVE
METAR KBVE 201251Z AUTO 21005KT 10SM CLR 30/24 A3006 RMK AO2 SLP178
T03000244





000
SAUS44 KLIX 201153
MTRBVE
METAR KBVE 201151Z AUTO 21006KT 10SM CLR 29/25 A3004 RMK AO2 SLP171
7//// T02890250 10294 20283 53017





000
SAUS44 KLIX 201053
MTRBVE
METAR KBVE 201051Z AUTO 20005KT 10SM CLR 29/24 A3001 RMK AO2 SLP163
T02890244





000
SAUS44 KLIX 200952
MTRBVE
METAR KBVE 200951Z AUTO 22006KT 10SM CLR 29/24 A3000 RMK AO2 SLP157
T02890244





000
SAUS44 KLIX 200852
MTRBVE
METAR KBVE 200851Z AUTO 20006KT 10SM CLR 29/25 A2999 RMK AO2 SLP154
T02890250 55004





000
SAUS44 KLIX 200752
MTRBVE
METAR KBVE 200751Z AUTO 19006KT 10SM CLR 29/25 A2998 RMK AO2 SLP152
T02890250





000
SAUS44 KLIX 200653
MTRBVE
METAR KBVE 200651Z AUTO 18007KT 10SM CLR 29/25 A2999 RMK AO2 SLP154
T02890250





000
SAUS44 KLIX 200552
MTRBVE
METAR KBVE 200551Z AUTO 19006KT 10SM CLR 29/24 A3000 RMK AO2 SLP158
T02890244 10300 20283 403170283 58003





000
SAUS44 KLIX 200453
MTRBVE
METAR KBVE 200451Z AUTO 18006KT 10SM CLR 28/24 A3001 RMK AO2 SLP161
T02830239





000
SAUS44 KLIX 200352
MTRBVE
METAR KBVE 200351Z AUTO 19004KT 10SM CLR 29/24 A3001 RMK AO2 SLP162
T02890244





000
SAUS44 KLIX 200252
MTRBVE
METAR KBVE 200251Z AUTO 20006KT 10SM CLR 29/24 A3001 RMK AO2 SLP161
T02940239 53012





000
SAUS44 KLIX 200152
MTRBVE
METAR KBVE 200151Z AUTO 22008KT 10SM CLR 29/24 A2998 RMK AO2 SLP152
T02940244





000
SAUS44 KLIX 200052
MTRBVE
METAR KBVE 200051Z AUTO 21005KT 10SM CLR 29/24 A2997 RMK AO2 SLP148
T02940244





000
SAUS44 KLIX 192352
MTRBVE
METAR KBVE 192351Z AUTO 21007KT 10SM CLR 30/24 A2997 RMK AO2 SLP149
T03000244 10317 20300 50002





000
SAUS44 KLIX 192252
MTRBVE
METAR KBVE 192251Z AUTO 23008KT 10SM CLR 31/24 A2998 RMK AO2 SLP152
T03060244





000
SAUS44 KLIX 192201
MTRBVE
SPECI KBVE 192200Z AUTO 24009KT 10SM FEW003 31/24 A2997 RMK AO2
T03110239





000
SAUS44 KLIX 192152
MTRBVE
METAR KBVE 192151Z AUTO 23008KT 10SM CLR 31/24 A2997 RMK AO2 SLP147
T03110239





000
SAUS44 KLIX 192052
MTRBVE
METAR KBVE 192051Z AUTO 21009KT 10SM CLR 31/24 A2997 RMK AO2 SLP147
T03110244 58021





000
SAUS44 KLIX 191952
MTRBVE
METAR KBVE 191951Z AUTO 21009KT 10SM CLR 31/24 A2999 RMK AO2 SLP154
T03110239





000
SAUS44 KLIX 191852
MTRBVE
METAR KBVE 191851Z AUTO 22009KT 10SM CLR 31/24 A3001 RMK AO2 SLP163
T03060239 $





000
SAUS44 KLIX 191801
MTRBVE
SPECI KBVE 191759Z AUTO 25008KT 10SM FEW003 31/24 A3003 RMK AO2
T03110239





000
SAUS44 KLIX 191752
MTRBVE
METAR KBVE 191751Z AUTO 23008KT 10SM CLR 32/23 A3003 RMK AO2 SLP168
6//// T03170233 10317 20289 50000





000
SAUS44 KLIX 191652
MTRBVE
METAR KBVE 191651Z AUTO 25007KT 10SM CLR 31/24 A3003 RMK AO2 SLP168
T03060239 PWINO $





000
SAUS44 KLIX 191552
MTRBVE
METAR KBVE 191551Z AUTO 24008KT CLR 31/24 A3005 RMK AO2 SLP174
T03060244 $





000
SAUS44 KLIX 191452
MTRBVE
METAR KBVE 191451Z AUTO 24009KT 10SM CLR 30/24 A3003 RMK AO2 SLP168
T03000239 51014





000
SAUS44 KLIX 191353 COR
MTRBVE
METAR KBVE 191351Z AUTO 24009KT 10SM FEW024 30/25 A3002 RMK AO2
SLP165 T03000250





000
SAUS44 KLIX 191252
MTRBVE
METAR KBVE 191251Z AUTO 22008KT 10SM CLR 29/24 A3000 RMK AO2 SLP160
T02940239





    US Dept of Commerce
    National Oceanic and Atmospheric Administration
    National Weather Service
    1325 East West Highway
    Silver Spring, MD 20910
    Page Author: NWS Internet Services Team
Disclaimer
Information Quality
Credits
Glossary
Privacy Policy
Freedom of Information Act (FOIA)
About Us
Career Opportunities